createdAt,value
2018-10-19T00:00:45.581Z,7.8
2018-10-19T00:01:54.227Z,7.75
2018-10-19T00:03:02.922Z,7.77
2018-10-19T00:04:11.834Z,7.69
2018-10-19T00:05:20.470Z,7.75
2018-10-19T00:06:29.114Z,7.75
2018-10-19T00:07:37.746Z,7.75
2018-10-19T00:08:46.388Z,7.74
2018-10-19T00:09:55.023Z,7.64
2018-10-19T00:11:04.274Z,7.64
2018-10-19T00:12:12.909Z,7.66
2018-10-19T00:13:21.550Z,7.7
2018-10-19T00:14:30.455Z,7.69
2018-10-19T00:15:39.090Z,7.69
2018-10-19T00:16:47.729Z,7.66
2018-10-19T00:17:56.370Z,7.72
2018-10-19T00:19:05.012Z,7.69
2018-10-19T00:20:13.914Z,7.7
2018-10-19T00:21:22.555Z,7.74
2018-10-19T00:22:31.192Z,7.72
2018-10-19T00:23:39.838Z,7.58
2018-10-19T00:24:48.471Z,7.61
2018-10-19T00:25:57.111Z,7.61
2018-10-19T00:27:05.864Z,7.74
2018-10-19T00:28:14.828Z,7.7
2018-10-19T00:29:23.463Z,7.64
2018-10-19T00:30:32.105Z,7.69
2018-10-19T00:31:40.738Z,7.66
2018-10-19T00:32:49.374Z,7.53
2018-10-19T00:33:58.024Z,7.56
2018-10-19T00:35:06.699Z,7.59
2018-10-19T00:36:15.730Z,7.61
2018-10-19T00:37:24.366Z,7.58
2018-10-19T00:38:33.012Z,7.58
2018-10-19T00:39:41.651Z,7.55
2018-10-19T00:40:50.289Z,7.56
2018-10-19T00:41:58.919Z,7.4
2018-10-19T00:43:07.562Z,7.47
2018-10-19T00:44:16.199Z,7.43
2018-10-19T00:45:24.846Z,7.44
2018-10-19T00:46:33.740Z,7.5
2018-10-19T00:47:42.644Z,7.46
2018-10-19T00:48:51.297Z,7.44
2018-10-19T00:49:59.934Z,7.44
2018-10-19T00:51:08.912Z,7.4
2018-10-19T00:52:17.468Z,7.37
2018-10-19T00:53:26.112Z,7.39
2018-10-19T00:54:34.747Z,7.36
2018-10-19T00:55:43.400Z,7.31
2018-10-19T00:56:52.041Z,7.32
2018-10-19T00:58:00.674Z,7.37
2018-10-19T00:59:09.448Z,7.36
2018-10-19T01:00:18.423Z,7.23
2018-10-19T01:01:27.053Z,7.26
2018-10-19T01:02:35.693Z,7.28
2018-10-19T01:03:44.329Z,7.23
2018-10-19T01:04:53.002Z,7.28
2018-10-19T01:06:01.935Z,7.25
2018-10-19T01:07:10.577Z,7.23
2018-10-19T01:08:19.213Z,7.23
2018-10-19T01:09:27.851Z,7.29
2018-10-19T01:10:36.500Z,7.21
2018-10-19T01:11:45.136Z,7.23
2018-10-19T01:12:53.778Z,7.29
2018-10-19T01:14:02.414Z,7.25
2018-10-19T01:15:11.180Z,7.33
2018-10-19T01:16:19.698Z,7.31
2018-10-19T01:17:28.341Z,7.37
2018-10-19T01:18:36.971Z,7.36
2018-10-19T01:19:45.623Z,7.37
2018-10-19T01:20:54.860Z,7.4
2018-10-19T01:22:03.447Z,7.36
2018-10-19T01:23:12.205Z,7.37
2018-10-19T01:24:20.717Z,7.43
2018-10-19T01:25:29.354Z,7.43
2018-10-19T01:26:37.994Z,7.41
2018-10-19T01:27:46.638Z,7.47
2018-10-19T01:28:55.282Z,7.47
2018-10-19T01:30:03.909Z,7.46
2018-10-19T01:31:12.542Z,7.46
2018-10-19T01:32:21.188Z,7.46
2018-10-19T01:33:30.085Z,7.59
2018-10-19T01:34:38.728Z,7.61
2018-10-19T01:35:47.361Z,7.58
2018-10-19T01:36:56.013Z,7.67
2018-10-19T01:38:04.907Z,7.67
2018-10-19T01:39:13.680Z,7.78
2018-10-19T01:40:22.450Z,7.74
2018-10-19T01:41:31.095Z,7.75
2018-10-19T01:42:39.731Z,7.77
2018-10-19T01:43:48.361Z,7.85
2018-10-19T01:44:57.032Z,7.87
2018-10-19T01:46:05.954Z,7.87
2018-10-19T01:47:14.721Z,7.85
2018-10-19T01:48:23.228Z,7.81
2018-10-19T01:49:31.867Z,7.77
2018-10-19T01:50:40.511Z,7.77
2018-10-19T01:51:49.147Z,7.77
2018-10-19T01:52:57.801Z,7.8
2018-10-19T01:54:06.423Z,7.84
2018-10-19T01:55:15.066Z,7.78
2018-10-19T01:56:23.701Z,7.8
2018-10-19T01:57:32.339Z,7.84
2018-10-19T01:58:40.982Z,7.83
2018-10-19T01:59:49.624Z,7.84
2018-10-19T02:00:58.263Z,7.85
2018-10-19T02:02:06.899Z,7.83
2018-10-19T02:03:15.612Z,7.83
2018-10-19T02:04:24.823Z,7.75
2018-10-19T02:05:33.469Z,7.84
2018-10-19T02:06:42.106Z,7.75
2018-10-19T02:07:50.744Z,7.77
2018-10-19T02:08:59.438Z,7.78
2018-10-19T02:10:08.022Z,7.84
2018-10-19T02:11:17.338Z,7.84
2018-10-19T02:12:25.977Z,7.88
2018-10-19T02:13:34.613Z,7.78
2018-10-19T02:14:43.257Z,7.81
2018-10-19T02:15:52.159Z,7.83
2018-10-19T02:17:00.806Z,7.77
2018-10-19T02:18:09.436Z,7.8
2018-10-19T02:19:18.341Z,7.75
2018-10-19T02:20:26.980Z,7.77
2018-10-19T02:21:35.622Z,7.72
2018-10-19T02:22:44.795Z,7.75
2018-10-19T02:23:53.426Z,7.72
2018-10-19T02:25:02.065Z,7.75
2018-10-19T02:26:10.711Z,7.74
2018-10-19T02:27:19.360Z,7.7
2018-10-19T02:28:27.994Z,7.67
2018-10-19T02:29:36.634Z,7.67
2018-10-19T02:30:45.277Z,7.69
2018-10-19T02:31:54.456Z,7.58
2018-10-19T02:33:03.797Z,7.64
2018-10-19T02:34:12.410Z,7.53
2018-10-19T02:35:21.531Z,7.58
2018-10-19T02:36:30.172Z,7.5
2018-10-19T02:37:38.814Z,7.59
2018-10-19T02:38:47.458Z,7.43
2018-10-19T02:39:56.094Z,7.43
2018-10-19T02:41:05.117Z,7.43
2018-10-19T02:42:14.006Z,7.37
2018-10-19T02:43:22.645Z,7.39
2018-10-19T02:44:31.290Z,7.36
2018-10-19T02:45:40.193Z,7.37
2018-10-19T02:46:48.828Z,7.36
2018-10-19T02:47:57.792Z,7.28
2018-10-19T02:49:06.701Z,7.36
2018-10-19T02:50:15.596Z,7.32
2018-10-19T02:51:24.250Z,7.33
2018-10-19T02:52:33.156Z,7.23
2018-10-19T02:53:41.798Z,7.32
2018-10-19T02:54:50.426Z,7.32
2018-10-19T02:55:59.070Z,7.22
2018-10-19T02:57:07.797Z,7.29
2018-10-19T02:58:16.356Z,7.25
2018-10-19T02:59:24.996Z,7.23
2018-10-19T03:00:33.891Z,7.15
2018-10-19T03:01:42.535Z,7.18
2018-10-19T03:02:51.170Z,7.15
2018-10-19T03:03:59.816Z,7.05
2018-10-19T03:05:08.745Z,7.14
2018-10-19T03:06:17.629Z,7.11
2018-10-19T03:07:26.536Z,7.08
2018-10-19T03:08:35.181Z,7.03
2018-10-19T03:09:43.810Z,7.03
2018-10-19T03:10:52.495Z,7.03
2018-10-19T03:12:01.088Z,7
2018-10-19T03:13:09.739Z,7.04
2018-10-19T03:14:18.654Z,6.95
2018-10-19T03:15:27.269Z,7.01
2018-10-19T03:16:36.450Z,6.92
2018-10-19T03:17:45.353Z,6.92
2018-10-19T03:18:54.001Z,6.92
2018-10-19T03:20:02.903Z,6.87
2018-10-19T03:21:12.323Z,6.92
2018-10-19T03:22:20.906Z,6.82
2018-10-19T03:23:29.555Z,6.82
2018-10-19T03:24:38.190Z,6.82
2018-10-19T03:25:46.836Z,6.85
2018-10-19T03:26:55.816Z,6.78
2018-10-19T03:28:04.400Z,6.72
2018-10-19T03:29:13.175Z,6.67
2018-10-19T03:30:22.156Z,6.74
2018-10-19T03:31:30.783Z,6.71
2018-10-19T03:32:39.693Z,6.67
2018-10-19T03:33:48.345Z,6.74
2018-10-19T03:34:57.290Z,6.6
2018-10-19T03:36:05.882Z,6.67
2018-10-19T03:37:14.512Z,6.64
2018-10-19T03:38:23.163Z,6.59
2018-10-19T03:39:31.799Z,6.59
2018-10-19T03:40:40.456Z,6.54
2018-10-19T03:41:49.096Z,6.57
2018-10-19T03:42:57.990Z,6.62
2018-10-19T03:44:07.736Z,6.53
2018-10-19T03:45:16.441Z,6.56
2018-10-19T03:46:25.016Z,6.59
2018-10-19T03:47:33.934Z,6.5
2018-10-19T03:48:42.574Z,6.53
2018-10-19T03:49:51.205Z,6.54
2018-10-19T03:50:59.910Z,6.52
2018-10-19T03:52:08.497Z,6.52
2018-10-19T03:53:17.212Z,6.53
2018-10-19T03:54:26.272Z,6.59
2018-10-19T03:55:34.899Z,6.54
2018-10-19T03:56:43.806Z,6.56
2018-10-19T03:57:52.702Z,6.59
2018-10-19T03:59:01.367Z,6.57
2018-10-19T04:00:10.442Z,6.67
2018-10-19T04:01:19.085Z,6.64
2018-10-19T04:02:27.719Z,6.6
2018-10-19T04:03:36.656Z,6.65
2018-10-19T04:04:45.527Z,6.7
2018-10-19T04:05:54.167Z,6.68
2018-10-19T04:07:02.808Z,6.71
2018-10-19T04:08:11.458Z,6.78
2018-10-19T04:09:20.187Z,6.78
2018-10-19T04:10:28.994Z,6.78
2018-10-19T04:11:37.638Z,6.78
2018-10-19T04:12:46.531Z,6.82
2018-10-19T04:13:55.444Z,6.83
2018-10-19T04:15:04.096Z,6.77
2018-10-19T04:16:12.744Z,6.92
2018-10-19T04:17:21.631Z,6.89
2018-10-19T04:18:30.548Z,6.9
2018-10-19T04:19:39.185Z,6.89
2018-10-19T04:20:48.090Z,6.96
2018-10-19T04:21:56.719Z,6.92
2018-10-19T04:23:05.372Z,6.9
2018-10-19T04:24:14.002Z,6.92
2018-10-19T04:25:22.642Z,6.92
2018-10-19T04:26:31.543Z,6.97
2018-10-19T04:27:40.976Z,6.87
2018-10-19T04:28:49.958Z,6.95
2018-10-19T04:29:58.870Z,6.95
2018-10-19T04:31:07.509Z,6.9
2018-10-19T04:32:16.139Z,6.92
2018-10-19T04:33:25.050Z,6.93
2018-10-19T04:34:33.967Z,6.9
2018-10-19T04:35:42.612Z,6.93
2018-10-19T04:36:51.769Z,6.95
2018-10-19T04:38:00.412Z,6.92
2018-10-19T04:39:09.099Z,6.9
2018-10-19T04:40:17.694Z,6.92
2018-10-19T04:41:26.373Z,6.89
2018-10-19T04:42:35.289Z,6.89
2018-10-19T04:43:43.926Z,6.92
2018-10-19T04:44:52.899Z,6.96
2018-10-19T04:46:01.489Z,6.96
2018-10-19T04:47:10.237Z,6.9
2018-10-19T04:48:19.164Z,6.89
2018-10-19T04:49:27.809Z,6.93
2018-10-19T04:50:36.455Z,6.9
2018-10-19T04:51:45.355Z,6.9
2018-10-19T04:52:54.286Z,6.85
2018-10-19T04:54:02.896Z,6.95
2018-10-19T04:55:11.887Z,6.95
2018-10-19T04:56:20.784Z,6.85
2018-10-19T04:57:29.431Z,6.93
2018-10-19T04:58:39.136Z,6.93
2018-10-19T04:59:48.045Z,6.92
2018-10-19T05:00:56.956Z,6.93
2018-10-19T05:02:05.601Z,6.9
2018-10-19T05:03:14.267Z,6.93
2018-10-19T05:04:22.894Z,6.93
2018-10-19T05:05:31.633Z,6.95
2018-10-19T05:06:40.353Z,6.92
2018-10-19T05:07:48.801Z,6.89
2018-10-19T05:08:57.707Z,6.89
2018-10-19T05:10:06.612Z,6.95
2018-10-19T05:11:15.309Z,6.92
2018-10-19T05:12:23.953Z,6.92
2018-10-19T05:13:32.529Z,6.89
2018-10-19T05:14:41.170Z,6.83
2018-10-19T05:15:49.807Z,6.8
2018-10-19T05:16:58.465Z,6.78
2018-10-19T05:18:07.100Z,6.83
2018-10-19T05:19:15.733Z,6.77
2018-10-19T05:20:24.368Z,6.82
2018-10-19T05:21:33.547Z,6.72
2018-10-19T05:22:42.463Z,6.72
2018-10-19T05:23:51.089Z,6.75
2018-10-19T05:24:59.729Z,6.65
2018-10-19T05:26:08.384Z,6.67
2018-10-19T05:27:17.014Z,6.68
2018-10-19T05:28:25.654Z,6.77
2018-10-19T05:29:34.299Z,6.71
2018-10-19T05:30:42.938Z,6.72
2018-10-19T05:31:51.586Z,6.62
2018-10-19T05:33:00.565Z,6.62
2018-10-19T05:34:09.126Z,6.56
2018-10-19T05:35:17.859Z,6.59
2018-10-19T05:36:26.408Z,6.54
2018-10-19T05:37:35.308Z,6.52
2018-10-19T05:38:44.499Z,6.57
2018-10-19T05:39:53.128Z,6.57
2018-10-19T05:41:01.781Z,6.53
2018-10-19T05:42:11.272Z,6.5
2018-10-19T05:43:19.944Z,6.46
2018-10-19T05:44:28.821Z,6.46
2018-10-19T05:45:37.449Z,6.52
2018-10-19T05:46:46.092Z,6.43
2018-10-19T05:47:54.726Z,6.35
2018-10-19T05:49:03.373Z,6.34
2018-10-19T05:50:12.080Z,6.43
2018-10-19T05:51:20.648Z,6.46
2018-10-19T05:52:29.286Z,6.35
2018-10-19T05:53:37.934Z,6.38
2018-10-19T05:54:46.561Z,6.36
2018-10-19T05:55:55.239Z,6.34
2018-10-19T05:57:04.176Z,6.35
2018-10-19T05:58:12.827Z,6.44
2018-10-19T05:59:21.468Z,6.34
2018-10-19T06:00:30.102Z,6.41
2018-10-19T06:01:39.010Z,6.38
2018-10-19T06:02:47.645Z,6.38
2018-10-19T06:03:56.293Z,6.39
2018-10-19T06:05:05.382Z,6.32
2018-10-19T06:06:13.989Z,6.38
2018-10-19T06:07:22.618Z,6.38
2018-10-19T06:08:31.265Z,6.29
2018-10-19T06:09:39.902Z,6.35
2018-10-19T06:10:48.543Z,6.31
2018-10-19T06:11:57.171Z,6.32
2018-10-19T06:13:05.817Z,6.38
2018-10-19T06:14:14.576Z,6.32
2018-10-19T06:15:23.593Z,6.32
2018-10-19T06:16:32.222Z,6.34
2018-10-19T06:17:40.862Z,6.34
2018-10-19T06:18:49.508Z,6.35
2018-10-19T06:19:58.217Z,6.34
2018-10-19T06:21:07.330Z,6.31
2018-10-19T06:22:15.903Z,6.38
2018-10-19T06:23:24.511Z,6.38
2018-10-19T06:24:33.143Z,6.32
2018-10-19T06:25:41.795Z,6.35
2018-10-19T06:26:50.744Z,6.35
2018-10-19T06:27:59.386Z,6.36
2018-10-19T06:29:08.077Z,6.32
2018-10-19T06:30:16.672Z,6.29
2018-10-19T06:31:25.302Z,6.34
2018-10-19T06:32:34.205Z,6.41
2018-10-19T06:33:42.909Z,6.32
2018-10-19T06:34:52.252Z,6.35
2018-10-19T06:36:00.877Z,6.41
2018-10-19T06:37:09.509Z,6.41
2018-10-19T06:38:18.148Z,6.35
2018-10-19T06:39:26.784Z,6.31
2018-10-19T06:40:35.487Z,6.38
2018-10-19T06:41:44.388Z,6.38
2018-10-19T06:42:53.032Z,6.34
2018-10-19T06:44:01.681Z,6.32
2018-10-19T06:45:10.305Z,6.38
2018-10-19T06:46:18.937Z,6.38
2018-10-19T06:47:27.620Z,6.32
2018-10-19T06:48:36.541Z,6.38
2018-10-19T06:49:45.189Z,6.35
2018-10-19T06:50:53.823Z,6.41
2018-10-19T06:52:02.464Z,6.47
2018-10-19T06:53:11.254Z,6.36
2018-10-19T06:54:20.182Z,6.39
2018-10-19T06:55:29.084Z,6.39
2018-10-19T06:56:37.720Z,6.32
2018-10-19T06:57:46.360Z,6.32
2018-10-19T06:58:55.416Z,6.5
2018-10-19T07:00:04.181Z,6.46
2018-10-19T07:01:13.084Z,6.46
2018-10-19T07:02:21.728Z,6.57
2018-10-19T07:03:30.360Z,6.46
2018-10-19T07:04:38.997Z,6.56
2018-10-19T07:05:47.731Z,6.54
2018-10-19T07:06:56.311Z,6.53
2018-10-19T07:08:05.055Z,6.62
2018-10-19T07:09:14.147Z,6.59
2018-10-19T07:10:22.789Z,6.6
2018-10-19T07:11:31.429Z,6.71
2018-10-19T07:12:40.069Z,6.64
2018-10-19T07:13:48.706Z,6.64
2018-10-19T07:14:57.347Z,6.65
2018-10-19T07:16:05.983Z,6.65
2018-10-19T07:17:14.713Z,6.71
2018-10-19T07:18:23.263Z,6.72
2018-10-19T07:19:31.901Z,6.8
2018-10-19T07:20:40.534Z,6.8
2018-10-19T07:21:49.249Z,6.8
2018-10-19T07:22:57.877Z,6.77
2018-10-19T07:24:06.463Z,6.85
2018-10-19T07:25:15.368Z,6.87
2018-10-19T07:26:24.282Z,6.9
2018-10-19T07:27:33.192Z,6.9
2018-10-19T07:28:42.102Z,6.93
2018-10-19T07:29:50.735Z,6.95
2018-10-19T07:30:59.679Z,6.96
2018-10-19T07:32:08.406Z,7.04
2018-10-19T07:33:17.747Z,7.04
2018-10-19T07:34:26.386Z,7.04
2018-10-19T07:35:35.021Z,7.07
2018-10-19T07:36:43.930Z,7.15
2018-10-19T07:37:52.592Z,7.23
2018-10-19T07:39:01.463Z,7.18
2018-10-19T07:40:10.108Z,7.21
2018-10-19T07:41:19.014Z,7.23
2018-10-19T07:42:27.814Z,7.22
2018-10-19T07:43:36.294Z,7.29
2018-10-19T07:44:44.938Z,7.32
2018-10-19T07:45:53.573Z,7.41
2018-10-19T07:47:02.291Z,7.32
2018-10-19T07:48:11.543Z,7.36
2018-10-19T07:49:20.592Z,7.36
2018-10-19T07:50:29.229Z,7.41
2018-10-19T07:51:37.874Z,7.41
2018-10-19T07:52:46.512Z,7.47
2018-10-19T07:53:55.444Z,7.46
2018-10-19T07:55:04.063Z,7.5
2018-10-19T07:56:12.749Z,7.46
2018-10-19T07:57:21.345Z,7.41
2018-10-19T07:58:29.979Z,7.58
2018-10-19T07:59:38.619Z,7.64
2018-10-19T08:00:47.312Z,7.56
2018-10-19T08:01:55.941Z,7.7
2018-10-19T08:03:04.538Z,7.7
2018-10-19T08:04:13.181Z,7.7
2018-10-19T08:05:22.354Z,7.72
2018-10-19T08:06:30.998Z,7.78
2018-10-19T08:07:39.637Z,7.72
2018-10-19T08:08:48.534Z,7.78
2018-10-19T08:09:57.173Z,7.77
2018-10-19T08:11:06.119Z,7.9
2018-10-19T08:12:15.147Z,7.88
2018-10-19T08:13:23.790Z,7.9
2018-10-19T08:14:32.429Z,7.93
2018-10-19T08:15:41.062Z,8.02
2018-10-19T08:16:49.708Z,8.06
2018-10-19T08:17:58.344Z,8.16
2018-10-19T08:19:06.984Z,8.2
2018-10-19T08:20:15.664Z,8.17
2018-10-19T08:21:24.261Z,8.18
2018-10-19T08:22:32.898Z,8.27
2018-10-19T08:23:41.540Z,8.36
2018-10-19T08:24:50.444Z,8.35
2018-10-19T08:25:59.135Z,8.46
2018-10-19T08:27:08.461Z,8.38
2018-10-19T08:28:17.069Z,8.52
2018-10-19T08:29:25.711Z,8.57
2018-10-19T08:30:34.346Z,8.54
2018-10-19T08:31:42.986Z,8.57
2018-10-19T08:32:51.624Z,8.64
2018-10-19T08:34:00.265Z,8.64
2018-10-19T08:35:08.961Z,8.66
2018-10-19T08:36:17.926Z,8.74
2018-10-19T08:37:26.605Z,8.71
2018-10-19T08:38:35.207Z,8.86
2018-10-19T08:39:43.836Z,8.92
2018-10-19T08:40:52.498Z,8.89
2018-10-19T08:42:01.442Z,8.99
2018-10-19T08:43:10.125Z,9
2018-10-19T08:44:18.730Z,9.08
2018-10-19T08:45:27.366Z,9.11
2018-10-19T08:46:36.005Z,9.15
2018-10-19T08:47:44.737Z,9.15
2018-10-19T08:48:53.293Z,9.19
2018-10-19T08:50:01.945Z,9.19
2018-10-19T08:51:11.432Z,9.21
2018-10-19T08:52:20.452Z,9.27
2018-10-19T08:53:29.151Z,9.29
2018-10-19T08:54:37.776Z,9.29
2018-10-19T08:55:46.387Z,9.27
2018-10-19T08:56:55.027Z,9.39
2018-10-19T08:58:03.961Z,9.44
2018-10-19T08:59:12.591Z,9.45
2018-10-19T09:00:22.098Z,9.48
2018-10-19T09:01:30.732Z,9.64
2018-10-19T09:02:39.375Z,9.67
2018-10-19T09:03:48.023Z,9.69
2018-10-19T09:04:56.968Z,9.73
2018-10-19T09:06:05.631Z,9.85
2018-10-19T09:07:14.464Z,9.88
2018-10-19T09:08:23.108Z,9.9
2018-10-19T09:09:31.746Z,9.84
2018-10-19T09:10:40.770Z,9.99
2018-10-19T09:11:49.436Z,10
2018-10-19T09:12:58.097Z,10.07
2018-10-19T09:14:06.661Z,10.15
2018-10-19T09:15:15.630Z,10.23
2018-10-19T09:16:24.206Z,10.24
2018-10-19T09:17:32.851Z,10.3
2018-10-19T09:18:41.999Z,10.48
2018-10-19T09:19:50.751Z,10.53
2018-10-19T09:20:59.430Z,10.49
2018-10-19T09:22:08.030Z,10.53
2018-10-19T09:23:16.954Z,10.65
2018-10-19T09:24:25.582Z,10.62
2018-10-19T09:25:34.496Z,10.62
2018-10-19T09:26:43.395Z,10.62
2018-10-19T09:27:52.304Z,10.71
2018-10-19T09:29:01.000Z,10.79
2018-10-19T09:30:09.630Z,10.69
2018-10-19T09:31:18.577Z,10.86
2018-10-19T09:32:27.223Z,10.89
2018-10-19T09:33:35.854Z,10.87
2018-10-19T09:34:44.500Z,10.9
2018-10-19T09:35:53.487Z,10.98
2018-10-19T09:37:02.153Z,10.98
2018-10-19T09:38:10.761Z,11.01
2018-10-19T09:39:19.989Z,11.08
2018-10-19T09:40:28.633Z,11.13
2018-10-19T09:41:37.542Z,11.19
2018-10-19T09:42:46.451Z,11.23
2018-10-19T09:43:55.343Z,11.25
2018-10-19T09:45:04.039Z,11.27
2018-10-19T09:46:12.994Z,11.27
2018-10-19T09:47:21.665Z,11.38
2018-10-19T09:48:30.283Z,11.33
2018-10-19T09:49:38.929Z,11.43
2018-10-19T09:50:47.562Z,11.44
2018-10-19T09:51:56.215Z,11.53
2018-10-19T09:53:04.874Z,11.52
2018-10-19T09:54:13.491Z,11.53
2018-10-19T09:55:22.508Z,11.55
2018-10-19T09:56:31.158Z,11.71
2018-10-19T09:57:39.801Z,11.73
2018-10-19T09:58:48.435Z,11.7
2018-10-19T09:59:57.073Z,11.85
2018-10-19T10:01:05.720Z,11.85
2018-10-19T10:02:14.368Z,11.85
2018-10-19T10:03:23.004Z,11.95
2018-10-19T10:04:31.650Z,11.95
2018-10-19T10:05:40.289Z,12.05
2018-10-19T10:06:48.938Z,12.08
2018-10-19T10:07:57.725Z,12.1
2018-10-19T10:09:06.279Z,12.03
2018-10-19T10:10:15.623Z,12.14
2018-10-19T10:11:24.278Z,12.15
2018-10-19T10:12:33.182Z,12.23
2018-10-19T10:13:42.086Z,12.18
2018-10-19T10:14:51.486Z,12.23
2018-10-19T10:16:01.343Z,12.11
2018-10-19T10:17:10.463Z,12.12
2018-10-19T10:18:19.081Z,12.15
2018-10-19T10:19:27.833Z,12.14
2018-10-19T10:20:36.558Z,12.17
2018-10-19T10:21:45.208Z,12.18
2018-10-19T10:22:53.849Z,12.25
2018-10-19T10:24:02.500Z,12.18
2018-10-19T10:25:11.399Z,12.21
2018-10-19T10:26:20.046Z,12.37
2018-10-19T10:27:28.685Z,12.15
2018-10-19T10:28:37.337Z,12.12
2018-10-19T10:29:45.972Z,12.14
2018-10-19T10:30:54.656Z,12.14
2018-10-19T10:32:03.647Z,12.15
2018-10-19T10:33:12.269Z,12.12
2018-10-19T10:34:21.339Z,12.11
2018-10-19T10:35:30.243Z,12.26
2018-10-19T10:36:38.881Z,12.23
2018-10-19T10:37:47.523Z,12.4
2018-10-19T10:38:56.513Z,12.5
2018-10-19T10:40:05.141Z,12.4
2018-10-19T10:41:13.750Z,12.47
2018-10-19T10:42:22.395Z,12.53
2018-10-19T10:43:31.066Z,12.55
2018-10-19T10:44:39.851Z,12.63
2018-10-19T10:45:48.600Z,12.75
2018-10-19T10:46:57.620Z,12.75
2018-10-19T10:48:06.875Z,12.8
2018-10-19T10:49:15.630Z,12.84
2018-10-19T10:50:24.162Z,12.86
2018-10-19T10:51:32.801Z,12.9
2018-10-19T10:52:41.704Z,12.83
2018-10-19T10:53:50.347Z,12.95
2018-10-19T10:54:58.996Z,13.01
2018-10-19T10:56:07.902Z,13.02
2018-10-19T10:57:16.536Z,12.98
2018-10-19T10:58:25.177Z,13.05
2018-10-19T10:59:33.821Z,13.12
2018-10-19T11:00:42.733Z,13.13
2018-10-19T11:01:51.371Z,13.13
2018-10-19T11:03:00.017Z,13.17
2018-10-19T11:04:08.740Z,13.24
2018-10-19T11:05:17.303Z,13.36
2018-10-19T11:06:25.945Z,13.43
2018-10-19T11:07:34.777Z,13.54
2018-10-19T11:08:43.241Z,13.6
2018-10-19T11:09:51.890Z,13.57
2018-10-19T11:11:00.857Z,13.75
2018-10-19T11:12:09.506Z,13.68
2018-10-19T11:13:18.147Z,13.8
2018-10-19T11:14:26.787Z,13.86
2018-10-19T11:15:35.439Z,13.95
2018-10-19T11:16:44.338Z,13.98
2018-10-19T11:17:53.252Z,14.13
2018-10-19T11:19:01.966Z,14.16
2018-10-19T11:20:10.823Z,14.23
2018-10-19T11:21:19.472Z,14.26
2018-10-19T11:22:28.112Z,14.25
2018-10-19T11:23:36.760Z,14.28
2018-10-19T11:24:45.672Z,14.31
2018-10-19T11:25:54.316Z,14.37
2018-10-19T11:27:03.232Z,14.44
2018-10-19T11:28:11.935Z,14.41
2018-10-19T11:29:20.518Z,14.51
2018-10-19T11:30:29.166Z,14.51
2018-10-19T11:31:37.806Z,14.58
2018-10-19T11:32:46.448Z,14.63
2018-10-19T11:33:55.138Z,14.7
2018-10-19T11:35:04.117Z,14.67
2018-10-19T11:36:12.763Z,14.71
2018-10-19T11:37:21.465Z,14.78
2018-10-19T11:38:30.052Z,14.71
2018-10-19T11:39:38.699Z,14.87
2018-10-19T11:40:47.368Z,14.85
2018-10-19T11:41:56.011Z,14.86
2018-10-19T11:43:05.020Z,14.78
2018-10-19T11:44:13.608Z,14.89
2018-10-19T11:45:22.260Z,14.82
2018-10-19T11:46:30.899Z,14.79
2018-10-19T11:47:39.544Z,14.86
2018-10-19T11:48:48.245Z,14.93
2018-10-19T11:49:57.310Z,14.92
2018-10-19T11:51:05.958Z,14.87
2018-10-19T11:52:15.084Z,14.79
2018-10-19T11:53:23.641Z,14.77
2018-10-19T11:54:32.285Z,14.78
2018-10-19T11:55:40.933Z,14.7
2018-10-19T11:56:49.575Z,14.87
2018-10-19T11:57:58.231Z,14.78
2018-10-19T11:59:06.868Z,14.71
2018-10-19T12:00:15.515Z,14.73
2018-10-19T12:01:24.154Z,14.68
2018-10-19T12:02:33.061Z,14.77
2018-10-19T12:03:42.143Z,14.77
2018-10-19T12:04:50.739Z,14.87
2018-10-19T12:05:59.654Z,14.86
2018-10-19T12:07:08.351Z,14.85
2018-10-19T12:08:17.331Z,14.81
2018-10-19T12:09:25.973Z,14.89
2018-10-19T12:10:34.669Z,14.93
2018-10-19T12:11:43.271Z,14.85
2018-10-19T12:12:52.186Z,14.92
2018-10-19T12:14:00.825Z,14.92
2018-10-19T12:15:09.580Z,14.9
2018-10-19T12:16:18.358Z,14.87
2018-10-19T12:17:27.307Z,14.86
2018-10-19T12:18:35.949Z,14.87
2018-10-19T12:19:44.842Z,14.9
2018-10-19T12:20:53.585Z,14.9
2018-10-19T12:22:02.135Z,14.93
2018-10-19T12:23:10.776Z,15.05
2018-10-19T12:24:19.424Z,15.07
2018-10-19T12:25:28.061Z,15.08
2018-10-19T12:26:36.709Z,14.99
2018-10-19T12:27:45.357Z,15.1
2018-10-19T12:28:53.996Z,15.11
2018-10-19T12:30:02.952Z,15.15
2018-10-19T12:31:11.909Z,15.15
2018-10-19T12:32:20.521Z,15.18
2018-10-19T12:33:29.159Z,15.18
2018-10-19T12:34:37.806Z,15.19
2018-10-19T12:35:46.717Z,15.27
2018-10-19T12:36:55.704Z,15.29
2018-10-19T12:38:04.275Z,15.36
2018-10-19T12:39:12.982Z,15.39
2018-10-19T12:40:22.430Z,15.43
2018-10-19T12:41:31.097Z,15.39
2018-10-19T12:42:39.736Z,15.47
2018-10-19T12:43:48.382Z,15.52
2018-10-19T12:44:57.062Z,15.52
2018-10-19T12:46:05.665Z,15.55
2018-10-19T12:47:14.342Z,15.51
2018-10-19T12:48:22.960Z,15.6
2018-10-19T12:49:31.874Z,15.5
2018-10-19T12:50:40.516Z,15.48
2018-10-19T12:51:49.170Z,15.52
2018-10-19T12:52:57.809Z,15.59
2018-10-19T12:54:06.924Z,15.48
2018-10-19T12:55:15.462Z,15.5
2018-10-19T12:56:24.069Z,15.44
2018-10-19T12:57:33.459Z,15.48
2018-10-19T12:58:42.029Z,15.48
2018-10-19T12:59:50.665Z,15.47
2018-10-19T13:00:59.362Z,15.39
2018-10-19T13:02:08.666Z,15.37
2018-10-19T13:03:17.482Z,15.29
2018-10-19T13:04:26.090Z,15.32
2018-10-19T13:05:34.729Z,15.25
2018-10-19T13:06:43.386Z,15.3
2018-10-19T13:07:52.546Z,15.3
2018-10-19T13:09:01.211Z,15.43
2018-10-19T13:10:10.373Z,15.35
2018-10-19T13:11:19.020Z,15.33
2018-10-19T13:12:27.667Z,15.39
2018-10-19T13:13:36.321Z,15.35
2018-10-19T13:14:44.955Z,15.19
2018-10-19T13:15:53.864Z,15.15
2018-10-19T13:17:02.781Z,15.15
2018-10-19T13:18:11.547Z,15.05
2018-10-19T13:19:20.340Z,15
2018-10-19T13:20:28.980Z,14.94
2018-10-19T13:21:37.623Z,14.86
2018-10-19T13:22:46.265Z,14.74
2018-10-19T13:23:55.242Z,14.71
2018-10-19T13:25:04.127Z,14.68
2018-10-19T13:26:12.774Z,14.68
2018-10-19T13:27:21.411Z,14.71
2018-10-19T13:28:30.060Z,14.79
2018-10-19T13:29:38.704Z,14.86
2018-10-19T13:30:47.348Z,14.78
2018-10-19T13:31:55.989Z,14.71
2018-10-19T13:33:04.931Z,14.78
2018-10-19T13:34:13.588Z,14.68
2018-10-19T13:35:22.210Z,14.78
2018-10-19T13:36:31.110Z,14.62
2018-10-19T13:37:39.758Z,14.67
2018-10-19T13:38:48.403Z,14.61
2018-10-19T13:39:57.387Z,14.67
2018-10-19T13:41:06.028Z,14.63
2018-10-19T13:42:14.674Z,14.61
2018-10-19T13:43:23.309Z,14.55
2018-10-19T13:44:32.217Z,14.53
2018-10-19T13:45:40.871Z,14.51
2018-10-19T13:46:49.503Z,14.44
2018-10-19T13:47:58.148Z,14.45
2018-10-19T13:49:06.791Z,14.38
2018-10-19T13:50:15.443Z,14.45
2018-10-19T13:51:24.083Z,14.36
2018-10-19T13:52:32.870Z,14.41
2018-10-19T13:53:41.376Z,14.41
2018-10-19T13:54:50.294Z,14.43
2018-10-19T13:55:59.200Z,14.49
2018-10-19T13:57:07.851Z,14.43
2018-10-19T13:58:16.864Z,14.52
2018-10-19T13:59:25.777Z,14.58
2018-10-19T14:00:34.430Z,14.55
2018-10-19T14:01:43.071Z,14.56
2018-10-19T14:02:51.986Z,14.55
2018-10-19T14:04:00.627Z,14.59
2018-10-19T14:05:09.379Z,14.67
2018-10-19T14:06:17.930Z,14.66
2018-10-19T14:07:26.571Z,14.67
2018-10-19T14:08:35.213Z,14.71
2018-10-19T14:09:43.857Z,14.71
2018-10-19T14:10:52.501Z,14.89
2018-10-19T14:12:01.146Z,14.89
2018-10-19T14:13:10.049Z,14.89
2018-10-19T14:14:18.697Z,14.9
2018-10-19T14:15:27.339Z,14.94
2018-10-19T14:16:36.253Z,14.97
2018-10-19T14:17:44.903Z,14.93
2018-10-19T14:18:53.542Z,14.9
2018-10-19T14:20:02.189Z,14.99
2018-10-19T14:21:10.961Z,15.02
2018-10-19T14:22:19.746Z,14.89
2018-10-19T14:23:28.656Z,15.02
2018-10-19T14:24:37.300Z,14.99
2018-10-19T14:25:45.943Z,14.99
2018-10-19T14:26:54.607Z,15.02
2018-10-19T14:28:03.497Z,15.05
2018-10-19T14:29:12.226Z,15.05
2018-10-19T14:30:20.789Z,15.04
2018-10-19T14:31:29.446Z,15
2018-10-19T14:32:38.086Z,15.12
2018-10-19T14:33:46.734Z,15.1
2018-10-19T14:34:55.705Z,15.11
2018-10-19T14:36:04.339Z,14.99
2018-10-19T14:37:13.254Z,15.04
2018-10-19T14:38:21.890Z,14.96
2018-10-19T14:39:30.537Z,15.02
2018-10-19T14:40:39.172Z,15.04
2018-10-19T14:41:47.827Z,15.02
2018-10-19T14:42:56.466Z,15
2018-10-19T14:44:05.382Z,14.87
2018-10-19T14:45:14.418Z,14.89
2018-10-19T14:46:22.958Z,14.79
2018-10-19T14:47:31.854Z,14.73
2018-10-19T14:48:40.518Z,14.73
2018-10-19T14:49:49.146Z,14.55
2018-10-19T14:50:57.847Z,14.48
2018-10-19T14:52:06.811Z,14.43
2018-10-19T14:53:15.984Z,14.38
2018-10-19T14:54:24.574Z,14.28
2018-10-19T14:55:33.165Z,14.25
2018-10-19T14:56:41.815Z,14.2
2018-10-19T14:57:50.455Z,14.04
2018-10-19T14:58:59.149Z,14.05
2018-10-19T15:00:08.005Z,13.95
2018-10-19T15:01:16.654Z,13.79
2018-10-19T15:02:25.295Z,13.75
2018-10-19T15:03:33.947Z,13.71
2018-10-19T15:04:42.594Z,13.65
2018-10-19T15:05:51.505Z,13.6
2018-10-19T15:07:00.411Z,13.62